sensor_id;sensor_type;location;lat;lon;timestamp;pressure;altitude;pressure_sealevel;temperature;humidity
17230;BME280;8731;50.364;8.958;2023-04-26T00:01:51;100259.78;;;4.99;76.29
17230;BME280;8731;50.364;8.958;2023-04-26T00:06:15;100250.38;;;5.05;75.49
17230;BME280;8731;50.364;8.958;2023-04-26T00:10:38;100247.69;;;5.03;75.65
17230;BME280;8731;50.364;8.958;2023-04-26T00:15:00;100253.22;;;5.15;74.68
17230;BME280;8731;50.364;8.958;2023-04-26T00:19:23;100259.94;;;5.00;75.61
17230;BME280;8731;50.364;8.958;2023-04-26T00:23:46;100274.03;;;4.84;76.88
17230;BME280;8731;50.364;8.958;2023-04-26T00:28:09;100269.53;;;4.74;77.30
17230;BME280;8731;50.364;8.958;2023-04-26T00:32:31;100272.41;;;4.70;77.39
17230;BME280;8731;50.364;8.958;2023-04-26T00:36:54;100269.19;;;4.78;76.31
17230;BME280;8731;50.364;8.958;2023-04-26T00:41:18;100270.97;;;4.72;75.74
17230;BME280;8731;50.364;8.958;2023-04-26T00:45:41;100277.31;;;4.54;77.20
17230;BME280;8731;50.364;8.958;2023-04-26T00:50:06;100281.22;;;4.17;80.02
17230;BME280;8731;50.364;8.958;2023-04-26T00:54:29;100277.81;;;4.38;77.83
17230;BME280;8731;50.364;8.958;2023-04-26T00:58:53;100282.84;;;4.16;79.01
17230;BME280;8731;50.364;8.958;2023-04-26T01:03:16;100283.56;;;4.22;79.09
17230;BME280;8731;50.364;8.958;2023-04-26T01:07:38;100282.44;;;3.92;78.95
17230;BME280;8731;50.364;8.958;2023-04-26T01:12:01;100285.72;;;4.05;79.07
17230;BME280;8731;50.364;8.958;2023-04-26T01:16:26;100285.38;;;4.16;78.17
17230;BME280;8731;50.364;8.958;2023-04-26T01:20:50;100284.22;;;3.79;79.63
17230;BME280;8731;50.364;8.958;2023-04-26T01:25:15;100290.59;;;4.04;77.82
17230;BME280;8731;50.364;8.958;2023-04-26T01:29:37;100283.34;;;3.99;77.35
17230;BME280;8731;50.364;8.958;2023-04-26T01:34:00;100280.78;;;3.78;79.83
17230;BME280;8731;50.364;8.958;2023-04-26T01:38:22;100276.81;;;3.66;81.12
17230;BME280;8731;50.364;8.958;2023-04-26T01:42:49;100280.03;;;3.65;81.01
17230;BME280;8731;50.364;8.958;2023-04-26T01:47:11;100270.41;;;3.34;81.60
17230;BME280;8731;50.364;8.958;2023-04-26T01:51:33;100273.22;;;3.23;83.67
17230;BME280;8731;50.364;8.958;2023-04-26T01:55:56;100276.00;;;3.46;81.88
17230;BME280;8731;50.364;8.958;2023-04-26T02:00:23;100281.97;;;3.53;79.64
17230;BME280;8731;50.364;8.958;2023-04-26T02:04:47;100287.75;;;3.18;82.04
17230;BME280;8731;50.364;8.958;2023-04-26T02:09:10;100282.56;;;3.31;81.77
17230;BME280;8731;50.364;8.958;2023-04-26T02:13:34;100279.13;;;3.16;83.02
17230;BME280;8731;50.364;8.958;2023-04-26T02:17:57;100287.28;;;3.01;84.26
17230;BME280;8731;50.364;8.958;2023-04-26T02:22:20;100292.16;;;3.06;82.61
17230;BME280;8731;50.364;8.958;2023-04-26T02:26:44;100291.31;;;3.13;83.11
17230;BME280;8731;50.364;8.958;2023-04-26T02:31:07;100295.09;;;3.17;81.77
17230;BME280;8731;50.364;8.958;2023-04-26T02:35:30;100289.53;;;2.85;83.55
17230;BME280;8731;50.364;8.958;2023-04-26T02:39:53;100289.59;;;2.99;81.64
17230;BME280;8731;50.364;8.958;2023-04-26T02:44:16;100298.41;;;2.96;82.38
17230;BME280;8731;50.364;8.958;2023-04-26T02:48:38;100300.72;;;2.94;81.05
17230;BME280;8731;50.364;8.958;2023-04-26T02:53:02;100297.00;;;2.78;82.53
17230;BME280;8731;50.364;8.958;2023-04-26T02:57:24;100296.28;;;2.79;82.21
17230;BME280;8731;50.364;8.958;2023-04-26T03:01:46;100287.78;;;2.44;84.98
17230;BME280;8731;50.364;8.958;2023-04-26T03:06:09;100290.09;;;2.63;83.49
17230;BME280;8731;50.364;8.958;2023-04-26T03:10:33;100294.03;;;2.41;85.43
17230;BME280;8731;50.364;8.958;2023-04-26T03:14:55;100297.38;;;2.54;83.24
17230;BME280;8731;50.364;8.958;2023-04-26T03:19:19;100293.53;;;2.43;83.74
17230;BME280;8731;50.364;8.958;2023-04-26T03:23:42;100296.59;;;2.48;83.74
17230;BME280;8731;50.364;8.958;2023-04-26T03:28:05;100299.06;;;2.21;86.45
17230;BME280;8731;50.364;8.958;2023-04-26T03:32:28;100304.66;;;2.26;85.29
17230;BME280;8731;50.364;8.958;2023-04-26T03:36:50;100300.09;;;1.83;88.33
17230;BME280;8731;50.364;8.958;2023-04-26T03:41:13;100303.31;;;2.15;85.81
17230;BME280;8731;50.364;8.958;2023-04-26T03:45:37;100304.44;;;2.04;85.79
17230;BME280;8731;50.364;8.958;2023-04-26T03:50:00;100308.25;;;2.08;86.34
17230;BME280;8731;50.364;8.958;2023-04-26T03:54:23;100296.03;;;2.04;85.56
17230;BME280;8731;50.364;8.958;2023-04-26T03:58:46;100308.16;;;2.13;84.84
17230;BME280;8731;50.364;8.958;2023-04-26T04:03:09;100299.38;;;1.97;85.21
17230;BME280;8731;50.364;8.958;2023-04-26T04:07:32;100301.69;;;1.96;86.17
17230;BME280;8731;50.364;8.958;2023-04-26T04:11:54;100300.44;;;1.79;86.62
17230;BME280;8731;50.364;8.958;2023-04-26T04:16:17;100303.25;;;1.75;86.44
17230;BME280;8731;50.364;8.958;2023-04-26T04:20:41;100293.06;;;1.94;86.45
17230;BME280;8731;50.364;8.958;2023-04-26T04:25:03;100294.56;;;1.66;88.05
17230;BME280;8731;50.364;8.958;2023-04-26T04:29:27;100296.94;;;1.72;88.84
17230;BME280;8731;50.364;8.958;2023-04-26T04:33:50;100294.88;;;1.82;87.31
17230;BME280;8731;50.364;8.958;2023-04-26T04:38:14;100300.81;;;1.82;87.98
17230;BME280;8731;50.364;8.958;2023-04-26T04:42:37;100302.75;;;1.78;88.46
17230;BME280;8731;50.364;8.958;2023-04-26T04:47:01;100315.25;;;1.91;87.74
17230;BME280;8731;50.364;8.958;2023-04-26T04:51:24;100318.16;;;1.94;87.71
17230;BME280;8731;50.364;8.958;2023-04-26T04:55:48;100323.00;;;1.79;89.21
17230;BME280;8731;50.364;8.958;2023-04-26T05:00:12;100328.97;;;2.00;89.16
17230;BME280;8731;50.364;8.958;2023-04-26T05:04:45;100332.53;;;1.95;89.43
17230;BME280;8731;50.364;8.958;2023-04-26T05:09:08;100341.56;;;1.87;91.84
17230;BME280;8731;50.364;8.958;2023-04-26T05:13:32;100344.31;;;2.08;90.50
17230;BME280;8731;50.364;8.958;2023-04-26T05:17:54;100350.91;;;2.21;89.23
17230;BME280;8731;50.364;8.958;2023-04-26T05:22:19;100357.41;;;2.26;89.03
17230;BME280;8731;50.364;8.958;2023-04-26T05:26:41;100370.47;;;2.23;92.14
17230;BME280;8731;50.364;8.958;2023-04-26T05:31:22;100366.00;;;3.34;89.78
17230;BME280;8731;50.364;8.958;2023-04-26T05:36:03;100358.63;;;4.18;86.59
17230;BME280;8731;50.364;8.958;2023-04-26T05:40:26;100365.88;;;5.29;83.33
17230;BME280;8731;50.364;8.958;2023-04-26T05:44:49;100361.31;;;5.47;80.82
17230;BME280;8731;50.364;8.958;2023-04-26T05:49:12;100358.59;;;6.34;78.26
17230;BME280;8731;50.364;8.958;2023-04-26T05:53:35;100361.44;;;7.13;75.62
17230;BME280;8731;50.364;8.958;2023-04-26T05:57:58;100359.97;;;8.10;73.03
17230;BME280;8731;50.364;8.958;2023-04-26T06:02:20;100357.78;;;8.61;71.00
17230;BME280;8731;50.364;8.958;2023-04-26T06:06:44;100360.31;;;8.86;68.01
17230;BME280;8731;50.364;8.958;2023-04-26T06:11:07;100338.97;;;9.60;66.81
17230;BME280;8731;50.364;8.958;2023-04-26T06:15:30;100350.94;;;10.39;67.43
17230;BME280;8731;50.364;8.958;2023-04-26T06:19:53;100341.22;;;10.43;65.59
17230;BME280;8731;50.364;8.958;2023-04-26T06:24:18;100352.31;;;9.92;65.06
17230;BME280;8731;50.364;8.958;2023-04-26T06:28:40;100357.03;;;11.39;63.50
17230;BME280;8731;50.364;8.958;2023-04-26T06:33:03;100357.19;;;11.87;61.84
17230;BME280;8731;50.364;8.958;2023-04-26T06:37:27;100359.72;;;12.06;61.06
17230;BME280;8731;50.364;8.958;2023-04-26T06:41:51;100354.81;;;12.17;61.61
17230;BME280;8731;50.364;8.958;2023-04-26T06:46:30;100362.47;;;12.17;59.41
17230;BME280;8731;50.364;8.958;2023-04-26T06:50:52;100358.44;;;12.98;58.07
17230;BME280;8731;50.364;8.958;2023-04-26T06:55:15;100362.91;;;12.80;57.77
17230;BME280;8731;50.364;8.958;2023-04-26T06:59:39;100359.47;;;13.29;61.12
17230;BME280;8731;50.364;8.958;2023-04-26T07:04:02;100363.16;;;13.42;59.64
17230;BME280;8731;50.364;8.958;2023-04-26T07:08:26;100359.06;;;13.65;55.24
17230;BME280;8731;50.364;8.958;2023-04-26T07:12:49;100360.19;;;14.09;52.64
17230;BME280;8731;50.364;8.958;2023-04-26T07:17:12;100355.38;;;15.20;51.23
17230;BME280;8731;50.364;8.958;2023-04-26T07:21:35;100353.94;;;15.01;54.34
17230;BME280;8731;50.364;8.958;2023-04-26T07:25:57;100351.28;;;16.12;50.26
17230;BME280;8731;50.364;8.958;2023-04-26T07:30:20;100355.88;;;14.50;49.54
17230;BME280;8731;50.364;8.958;2023-04-26T07:34:44;100350.22;;;15.75;48.46
17230;BME280;8731;50.364;8.958;2023-04-26T07:39:07;100335.19;;;15.91;48.13
17230;BME280;8731;50.364;8.958;2023-04-26T07:43:30;100342.22;;;14.61;47.58
17230;BME280;8731;50.364;8.958;2023-04-26T07:47:52;100345.47;;;16.38;46.57
17230;BME280;8731;50.364;8.958;2023-04-26T07:52:16;100350.97;;;15.07;43.95
17230;BME280;8731;50.364;8.958;2023-04-26T07:56:38;100347.09;;;15.46;42.78
17230;BME280;8731;50.364;8.958;2023-04-26T08:01:01;100336.53;;;16.33;43.51
17230;BME280;8731;50.364;8.958;2023-04-26T08:05:23;100332.03;;;17.02;46.14
17230;BME280;8731;50.364;8.958;2023-04-26T08:09:48;100350.16;;;14.96;41.05
17230;BME280;8731;50.364;8.958;2023-04-26T08:14:10;100336.94;;;15.81;41.81
17230;BME280;8731;50.364;8.958;2023-04-26T08:18:32;100328.22;;;17.34;41.56
17230;BME280;8731;50.364;8.958;2023-04-26T08:22:55;100337.25;;;17.15;41.53
17230;BME280;8731;50.364;8.958;2023-04-26T08:27:18;100326.84;;;16.89;41.31
17230;BME280;8731;50.364;8.958;2023-04-26T08:31:41;100334.53;;;17.89;41.26
17230;BME280;8731;50.364;8.958;2023-04-26T08:36:04;100328.34;;;17.48;40.81
17230;BME280;8731;50.364;8.958;2023-04-26T08:40:27;100320.81;;;18.82;39.87
17230;BME280;8731;50.364;8.958;2023-04-26T08:44:52;100325.41;;;18.73;39.47
17230;BME280;8731;50.364;8.958;2023-04-26T08:49:21;100324.94;;;16.86;38.00
17230;BME280;8731;50.364;8.958;2023-04-26T08:53:51;100325.44;;;16.57;39.39
17230;BME280;8731;50.364;8.958;2023-04-26T08:58:16;100321.72;;;16.66;39.54
17230;BME280;8731;50.364;8.958;2023-04-26T09:02:40;100324.94;;;17.61;37.26
17230;BME280;8731;50.364;8.958;2023-04-26T09:07:07;100319.06;;;17.26;38.27
17230;BME280;8731;50.364;8.958;2023-04-26T09:11:51;100323.19;;;17.10;36.66
17230;BME280;8731;50.364;8.958;2023-04-26T09:16:15;100325.22;;;15.73;37.96
17230;BME280;8731;50.364;8.958;2023-04-26T09:20:39;100305.38;;;17.38;37.98
17230;BME280;8731;50.364;8.958;2023-04-26T09:25:02;100316.88;;;15.87;39.35
17230;BME280;8731;50.364;8.958;2023-04-26T09:29:26;100308.00;;;17.02;38.63
17230;BME280;8731;50.364;8.958;2023-04-26T09:33:57;100328.16;;;14.56;39.47
17230;BME280;8731;50.364;8.958;2023-04-26T09:38:21;100327.06;;;15.30;40.03
17230;BME280;8731;50.364;8.958;2023-04-26T09:42:44;100316.09;;;15.54;37.93
17230;BME280;8731;50.364;8.958;2023-04-26T09:47:07;100319.56;;;15.55;38.32
17230;BME280;8731;50.364;8.958;2023-04-26T09:51:31;100311.06;;;16.36;38.40
17230;BME280;8731;50.364;8.958;2023-04-26T09:55:55;100312.50;;;15.74;38.96
17230;BME280;8731;50.364;8.958;2023-04-26T10:00:26;100316.22;;;15.89;39.44
17230;BME280;8731;50.364;8.958;2023-04-26T10:04:50;100307.03;;;15.81;38.33
17230;BME280;8731;50.364;8.958;2023-04-26T10:09:13;100297.09;;;15.74;38.16
17230;BME280;8731;50.364;8.958;2023-04-26T10:13:38;100303.00;;;15.73;38.49
17230;BME280;8731;50.364;8.958;2023-04-26T10:18:00;100294.53;;;15.98;38.85
17230;BME280;8731;50.364;8.958;2023-04-26T10:22:27;100300.25;;;13.44;40.09
17230;BME280;8731;50.364;8.958;2023-04-26T10:26:53;100297.47;;;14.46;38.89
17230;BME280;8731;50.364;8.958;2023-04-26T10:31:17;100282.94;;;14.25;40.66
17230;BME280;8731;50.364;8.958;2023-04-26T10:35:59;100283.13;;;14.92;38.23
17230;BME280;8731;50.364;8.958;2023-04-26T10:40:25;100280.44;;;16.39;39.11
17230;BME280;8731;50.364;8.958;2023-04-26T10:44:49;100278.00;;;15.82;37.01
17230;BME280;8731;50.364;8.958;2023-04-26T10:49:14;100278.56;;;15.90;37.55
17230;BME280;8731;50.364;8.958;2023-04-26T10:53:57;100274.03;;;14.85;37.78
17230;BME280;8731;50.364;8.958;2023-04-26T10:58:28;100266.56;;;15.44;39.08
17230;BME280;8731;50.364;8.958;2023-04-26T11:02:53;100264.06;;;16.14;38.39
17230;BME280;8731;50.364;8.958;2023-04-26T11:07:36;100259.25;;;15.95;37.08
17230;BME280;8731;50.364;8.958;2023-04-26T11:11:59;100250.75;;;15.84;36.27
17230;BME280;8731;50.364;8.958;2023-04-26T11:16:21;100258.09;;;14.78;36.63
17230;BME280;8731;50.364;8.958;2023-04-26T11:20:49;100247.53;;;15.99;37.50
17230;BME280;8731;50.364;8.958;2023-04-26T11:25:13;100247.22;;;16.91;38.22
17230;BME280;8731;50.364;8.958;2023-04-26T11:29:36;100246.31;;;15.70;36.75
17230;BME280;8731;50.364;8.958;2023-04-26T11:34:02;100238.81;;;16.56;37.14
17230;BME280;8731;50.364;8.958;2023-04-26T11:38:26;100242.63;;;15.78;36.76
17230;BME280;8731;50.364;8.958;2023-04-26T11:42:50;100239.03;;;16.11;36.18
17230;BME280;8731;50.364;8.958;2023-04-26T11:47:12;100244.25;;;15.54;37.14
17230;BME280;8731;50.364;8.958;2023-04-26T11:51:35;100238.06;;;15.86;36.84
17230;BME280;8731;50.364;8.958;2023-04-26T11:55:57;100235.13;;;16.05;36.85
17230;BME280;8731;50.364;8.958;2023-04-26T12:00:22;100235.75;;;16.25;37.44
17230;BME280;8731;50.364;8.958;2023-04-26T12:04:45;100244.09;;;15.29;37.02
17230;BME280;8731;50.364;8.958;2023-04-26T12:09:08;100245.31;;;14.89;37.90
17230;BME280;8731;50.364;8.958;2023-04-26T12:13:30;100247.06;;;14.79;38.00
17230;BME280;8731;50.364;8.958;2023-04-26T12:17:57;100249.19;;;14.08;38.91
17230;BME280;8731;50.364;8.958;2023-04-26T12:22:20;100234.09;;;15.56;37.60
17230;BME280;8731;50.364;8.958;2023-04-26T12:26:43;100238.38;;;13.91;38.70
17230;BME280;8731;50.364;8.958;2023-04-26T12:31:06;100228.69;;;15.29;36.91
17230;BME280;8731;50.364;8.958;2023-04-26T12:35:30;100229.84;;;15.56;38.08
17230;BME280;8731;50.364;8.958;2023-04-26T12:39:54;100225.25;;;15.29;37.86
17230;BME280;8731;50.364;8.958;2023-04-26T12:44:16;100222.84;;;16.01;38.48
17230;BME280;8731;50.364;8.958;2023-04-26T12:48:38;100214.81;;;15.84;37.46
17230;BME280;8731;50.364;8.958;2023-04-26T12:53:02;100223.94;;;15.46;37.48
17230;BME280;8731;50.364;8.958;2023-04-26T12:57:24;100221.19;;;15.09;37.49
17230;BME280;8731;50.364;8.958;2023-04-26T13:01:46;100223.34;;;14.05;38.49
17230;BME280;8731;50.364;8.958;2023-04-26T13:06:09;100225.19;;;13.96;39.12
17230;BME280;8731;50.364;8.958;2023-04-26T13:10:32;100229.97;;;14.35;40.32
17230;BME280;8731;50.364;8.958;2023-04-26T13:14:55;100223.19;;;13.82;40.29
17230;BME280;8731;50.364;8.958;2023-04-26T13:19:17;100229.88;;;13.60;40.16
17230;BME280;8731;50.364;8.958;2023-04-26T13:23:39;100222.69;;;13.76;40.04
17230;BME280;8731;50.364;8.958;2023-04-26T13:28:03;100221.22;;;14.22;38.93
17230;BME280;8731;50.364;8.958;2023-04-26T13:32:26;100228.00;;;13.89;40.25
17230;BME280;8731;50.364;8.958;2023-04-26T13:36:49;100238.09;;;13.35;40.74
17230;BME280;8731;50.364;8.958;2023-04-26T13:41:12;100229.94;;;14.24;39.75
17230;BME280;8731;50.364;8.958;2023-04-26T13:45:35;100231.41;;;14.97;41.78
17230;BME280;8731;50.364;8.958;2023-04-26T13:49:58;100239.78;;;13.97;39.90
17230;BME280;8731;50.364;8.958;2023-04-26T13:54:20;100237.50;;;14.66;39.99
17230;BME280;8731;50.364;8.958;2023-04-26T13:58:45;100239.84;;;14.09;40.22
17230;BME280;8731;50.364;8.958;2023-04-26T14:03:08;100240.59;;;13.66;41.38
17230;BME280;8731;50.364;8.958;2023-04-26T14:07:30;100227.88;;;13.35;40.59
17230;BME280;8731;50.364;8.958;2023-04-26T14:11:53;100224.44;;;13.87;40.53
17230;BME280;8731;50.364;8.958;2023-04-26T14:16:15;100221.38;;;13.81;41.05
17230;BME280;8731;50.364;8.958;2023-04-26T14:20:39;100217.22;;;14.03;42.58
17230;BME280;8731;50.364;8.958;2023-04-26T14:25:05;100215.50;;;13.72;41.45
17230;BME280;8731;50.364;8.958;2023-04-26T14:29:28;100210.97;;;13.17;42.11
17230;BME280;8731;50.364;8.958;2023-04-26T14:33:50;100208.69;;;13.10;42.48
17230;BME280;8731;50.364;8.958;2023-04-26T14:38:14;100201.63;;;13.58;42.36
17230;BME280;8731;50.364;8.958;2023-04-26T14:42:36;100200.81;;;13.69;42.90
17230;BME280;8731;50.364;8.958;2023-04-26T14:47:03;100194.97;;;13.92;41.43
17230;BME280;8731;50.364;8.958;2023-04-26T14:51:26;100192.34;;;13.70;41.72
17230;BME280;8731;50.364;8.958;2023-04-26T14:55:54;100189.81;;;13.70;41.83
17230;BME280;8731;50.364;8.958;2023-04-26T15:00:17;100191.50;;;13.60;42.45
17230;BME280;8731;50.364;8.958;2023-04-26T15:04:41;100176.63;;;13.76;42.30
17230;BME280;8731;50.364;8.958;2023-04-26T15:09:04;100178.03;;;13.30;42.69
17230;BME280;8731;50.364;8.958;2023-04-26T15:13:29;100170.88;;;13.26;42.36
17230;BME280;8731;50.364;8.958;2023-04-26T15:17:51;100174.69;;;13.31;43.53
17230;BME280;8731;50.364;8.958;2023-04-26T15:22:13;100172.91;;;13.10;43.06
17230;BME280;8731;50.364;8.958;2023-04-26T15:26:36;100159.84;;;13.17;41.53
17230;BME280;8731;50.364;8.958;2023-04-26T15:31:03;100160.22;;;13.84;42.70
17230;BME280;8731;50.364;8.958;2023-04-26T15:35:28;100160.63;;;13.78;41.90
17230;BME280;8731;50.364;8.958;2023-04-26T15:39:50;100157.00;;;13.87;42.23
17230;BME280;8731;50.364;8.958;2023-04-26T15:44:13;100163.06;;;13.25;42.24
17230;BME280;8731;50.364;8.958;2023-04-26T15:48:37;100157.59;;;13.62;41.16
17230;BME280;8731;50.364;8.958;2023-04-26T15:52:59;100165.69;;;13.57;41.86
17230;BME280;8731;50.364;8.958;2023-04-26T15:57:21;100160.81;;;13.60;41.26
17230;BME280;8731;50.364;8.958;2023-04-26T16:01:44;100165.13;;;13.08;40.69
17230;BME280;8731;50.364;8.958;2023-04-26T16:06:08;100160.88;;;13.39;40.83
17230;BME280;8731;50.364;8.958;2023-04-26T16:10:30;100162.13;;;13.87;41.17
17230;BME280;8731;50.364;8.958;2023-04-26T16:14:52;100158.91;;;13.57;40.89
17230;BME280;8731;50.364;8.958;2023-04-26T16:19:15;100151.88;;;13.55;41.63
17230;BME280;8731;50.364;8.958;2023-04-26T16:23:39;100151.97;;;12.63;41.45
17230;BME280;8731;50.364;8.958;2023-04-26T16:28:02;100154.97;;;13.40;41.94
17230;BME280;8731;50.364;8.958;2023-04-26T16:32:24;100141.09;;;13.27;41.95
17230;BME280;8731;50.364;8.958;2023-04-26T16:36:46;100138.66;;;13.08;41.43
17230;BME280;8731;50.364;8.958;2023-04-26T16:41:10;100132.44;;;13.46;41.89
17230;BME280;8731;50.364;8.958;2023-04-26T16:45:32;100138.66;;;13.28;41.15
17230;BME280;8731;50.364;8.958;2023-04-26T16:49:54;100145.41;;;13.70;41.01
17230;BME280;8731;50.364;8.958;2023-04-26T16:54:17;100141.31;;;13.72;41.04
17230;BME280;8731;50.364;8.958;2023-04-26T16:58:41;100134.03;;;13.66;41.93
17230;BME280;8731;50.364;8.958;2023-04-26T17:03:03;100143.25;;;13.64;41.45
17230;BME280;8731;50.364;8.958;2023-04-26T17:07:25;100150.75;;;13.83;41.68
17230;BME280;8731;50.364;8.958;2023-04-26T17:11:47;100150.53;;;13.70;41.23
17230;BME280;8731;50.364;8.958;2023-04-26T17:16:11;100163.91;;;13.45;41.36
17230;BME280;8731;50.364;8.958;2023-04-26T17:20:33;100162.97;;;13.03;40.75
17230;BME280;8731;50.364;8.958;2023-04-26T17:24:56;100159.09;;;13.38;40.00
17230;BME280;8731;50.364;8.958;2023-04-26T17:29:18;100159.31;;;13.41;41.17
17230;BME280;8731;50.364;8.958;2023-04-26T17:33:42;100159.44;;;13.43;41.08
17230;BME280;8731;50.364;8.958;2023-04-26T17:38:04;100165.91;;;13.28;41.48
17230;BME280;8731;50.364;8.958;2023-04-26T17:42:26;100163.47;;;13.19;41.58
17230;BME280;8731;50.364;8.958;2023-04-26T17:46:49;100169.47;;;12.69;43.45
17230;BME280;8731;50.364;8.958;2023-04-26T17:51:12;100169.94;;;12.44;44.65
17230;BME280;8731;50.364;8.958;2023-04-26T17:55:35;100161.41;;;12.74;44.43
17230;BME280;8731;50.364;8.958;2023-04-26T17:59:57;100164.72;;;12.73;45.69
17230;BME280;8731;50.364;8.958;2023-04-26T18:04:21;100170.09;;;12.76;46.09
17230;BME280;8731;50.364;8.958;2023-04-26T18:08:45;100172.63;;;12.46;46.85
17230;BME280;8731;50.364;8.958;2023-04-26T18:13:08;100177.28;;;12.80;45.70
17230;BME280;8731;50.364;8.958;2023-04-26T18:17:31;100171.63;;;12.74;46.05
17230;BME280;8731;50.364;8.958;2023-04-26T18:21:58;100170.31;;;12.39;46.16
17230;BME280;8731;50.364;8.958;2023-04-26T18:26:22;100181.31;;;12.48;45.32
17230;BME280;8731;50.364;8.958;2023-04-26T18:30:45;100184.38;;;12.34;45.85
17230;BME280;8731;50.364;8.958;2023-04-26T18:35:15;100181.19;;;12.36;45.85
17230;BME280;8731;50.364;8.958;2023-04-26T18:39:38;100197.41;;;12.47;46.15
17230;BME280;8731;50.364;8.958;2023-04-26T18:44:01;100186.91;;;12.34;46.37
17230;BME280;8731;50.364;8.958;2023-04-26T18:48:32;100196.22;;;12.33;46.93
17230;BME280;8731;50.364;8.958;2023-04-26T18:52:55;100195.16;;;12.21;46.71
17230;BME280;8731;50.364;8.958;2023-04-26T18:57:17;100207.47;;;12.06;48.25
17230;BME280;8731;50.364;8.958;2023-04-26T19:01:43;100208.63;;;11.99;49.16
17230;BME280;8731;50.364;8.958;2023-04-26T19:06:06;100211.91;;;11.69;49.90
17230;BME280;8731;50.364;8.958;2023-04-26T19:10:35;100216.63;;;11.75;49.91
17230;BME280;8731;50.364;8.958;2023-04-26T19:14:58;100221.56;;;11.63;49.69
17230;BME280;8731;50.364;8.958;2023-04-26T19:19:22;100218.56;;;11.59;50.45
17230;BME280;8731;50.364;8.958;2023-04-26T19:23:45;100221.84;;;11.48;50.63
17230;BME280;8731;50.364;8.958;2023-04-26T19:28:08;100231.47;;;11.23;50.58
17230;BME280;8731;50.364;8.958;2023-04-26T19:32:31;100237.22;;;11.12;51.50
17230;BME280;8731;50.364;8.958;2023-04-26T19:36:57;100226.97;;;11.01;51.73
17230;BME280;8731;50.364;8.958;2023-04-26T19:41:20;100231.69;;;10.88;51.43
17230;BME280;8731;50.364;8.958;2023-04-26T19:45:44;100232.38;;;10.77;52.17
17230;BME280;8731;50.364;8.958;2023-04-26T19:50:08;100243.25;;;10.21;54.98
17230;BME280;8731;50.364;8.958;2023-04-26T19:54:33;100236.72;;;10.42;54.08
17230;BME280;8731;50.364;8.958;2023-04-26T19:58:56;100248.34;;;9.69;56.58
17230;BME280;8731;50.364;8.958;2023-04-26T20:03:20;100253.53;;;10.14;55.96
17230;BME280;8731;50.364;8.958;2023-04-26T20:07:43;100249.66;;;10.26;55.85
17230;BME280;8731;50.364;8.958;2023-04-26T20:12:08;100250.88;;;9.87;57.62
17230;BME280;8731;50.364;8.958;2023-04-26T20:16:31;100254.06;;;9.75;59.30
17230;BME280;8731;50.364;8.958;2023-04-26T20:20:54;100257.94;;;9.63;59.89
17230;BME280;8731;50.364;8.958;2023-04-26T20:25:17;100253.56;;;9.88;58.92
17230;BME280;8731;50.364;8.958;2023-04-26T20:29:45;100258.09;;;9.56;59.91
17230;BME280;8731;50.364;8.958;2023-04-26T20:34:09;100261.53;;;9.57;59.40
17230;BME280;8731;50.364;8.958;2023-04-26T20:38:31;100269.31;;;9.75;58.22
17230;BME280;8731;50.364;8.958;2023-04-26T20:42:58;100266.94;;;9.51;60.15
17230;BME280;8731;50.364;8.958;2023-04-26T20:47:22;100265.72;;;9.73;58.84
17230;BME280;8731;50.364;8.958;2023-04-26T20:51:45;100266.91;;;9.77;57.67
17230;BME280;8731;50.364;8.958;2023-04-26T20:56:08;100266.16;;;9.78;57.39
17230;BME280;8731;50.364;8.958;2023-04-26T21:00:36;100270.66;;;9.54;58.95
17230;BME280;8731;50.364;8.958;2023-04-26T21:05:00;100266.31;;;9.45;58.80
17230;BME280;8731;50.364;8.958;2023-04-26T21:09:23;100264.34;;;9.68;58.03
17230;BME280;8731;50.364;8.958;2023-04-26T21:13:47;100271.72;;;9.48;59.86
17230;BME280;8731;50.364;8.958;2023-04-26T21:18:10;100273.91;;;9.45;60.97
17230;BME280;8731;50.364;8.958;2023-04-26T21:22:36;100280.97;;;9.56;60.17
17230;BME280;8731;50.364;8.958;2023-04-26T21:27:00;100272.59;;;9.57;60.64
17230;BME280;8731;50.364;8.958;2023-04-26T21:31:23;100276.00;;;9.14;64.79
17230;BME280;8731;50.364;8.958;2023-04-26T21:35:47;100279.13;;;9.12;66.71
17230;BME280;8731;50.364;8.958;2023-04-26T21:40:12;100276.78;;;9.31;64.98
17230;BME280;8731;50.364;8.958;2023-04-26T21:44:36;100279.81;;;8.85;68.15
17230;BME280;8731;50.364;8.958;2023-04-26T21:48:58;100271.38;;;9.28;65.63
17230;BME280;8731;50.364;8.958;2023-04-26T21:53:21;100271.25;;;9.26;64.60
17230;BME280;8731;50.364;8.958;2023-04-26T21:57:46;100271.53;;;9.29;63.05
17230;BME280;8731;50.364;8.958;2023-04-26T22:02:08;100284.00;;;8.93;64.16
17230;BME280;8731;50.364;8.958;2023-04-26T22:06:31;100286.59;;;9.10;62.16
17230;BME280;8731;50.364;8.958;2023-04-26T22:10:55;100276.72;;;9.13;61.46
17230;BME280;8731;50.364;8.958;2023-04-26T22:15:19;100290.84;;;8.85;62.27
17230;BME280;8731;50.364;8.958;2023-04-26T22:19:42;100295.63;;;8.82;66.86
17230;BME280;8731;50.364;8.958;2023-04-26T22:24:05;100305.25;;;8.69;68.51
17230;BME280;8731;50.364;8.958;2023-04-26T22:28:28;100303.63;;;8.70;69.05
17230;BME280;8731;50.364;8.958;2023-04-26T22:32:54;100295.69;;;8.67;68.75
17230;BME280;8731;50.364;8.958;2023-04-26T22:37:19;100297.13;;;8.89;66.89
17230;BME280;8731;50.364;8.958;2023-04-26T22:41:42;100310.72;;;8.81;67.54
17230;BME280;8731;50.364;8.958;2023-04-26T22:46:05;100310.44;;;8.53;70.02
17230;BME280;8731;50.364;8.958;2023-04-26T22:50:28;100324.91;;;8.30;72.65
17230;BME280;8731;50.364;8.958;2023-04-26T22:54:51;100327.28;;;8.77;68.27
17230;BME280;8731;50.364;8.958;2023-04-26T22:59:14;100330.47;;;8.35;71.30
17230;BME280;8731;50.364;8.958;2023-04-26T23:03:37;100326.41;;;8.52;70.08
17230;BME280;8731;50.364;8.958;2023-04-26T23:08:01;100326.91;;;8.66;69.71
17230;BME280;8731;50.364;8.958;2023-04-26T23:12:24;100326.03;;;8.74;68.52
17230;BME280;8731;50.364;8.958;2023-04-26T23:16:47;100319.56;;;8.60;69.80
17230;BME280;8731;50.364;8.958;2023-04-26T23:21:09;100325.28;;;8.75;69.18
17230;BME280;8731;50.364;8.958;2023-04-26T23:25:33;100327.53;;;8.72;68.86